Time;durP1;ratioP1;P1;durP2;ratioP2;P2;SDS_P1;SDS_P2;PMS_P1;PMS_P2;Temp;Humidity;BMP_temperature;BMP_pressure;BME280_temperature;BME280_humidity;BME280_pressure;Samples;Min_cycle;Max_cycle;Signal;HPM_P1;HPM_P2
2023/01/27 00:00:52;;;;;;;13.43;3.40;;;5.20;99.90;;;4.37;100.00;102335.97;4152192;28;20046;-73
2023/01/27 00:02:53;;;;;;;11.20;3.13;;;5.30;99.90;;;4.46;100.00;102342.50;4153684;28;20072;-73
2023/01/27 00:04:53;;;;;;;15.43;2.85;;;5.40;99.90;;;4.51;100.00;102345.72;4153889;28;20034;-73
2023/01/27 00:06:54;;;;;;;9.68;3.08;;;5.50;99.90;;;4.58;100.00;102341.88;4157363;28;20031;-73
2023/01/27 00:08:55;;;;;;;13.05;3.65;;;5.50;99.90;;;4.63;100.00;102339.88;4156095;28;20535;-73
2023/01/27 00:13:26;;;;;;;11.23;3.20;;;5.70;99.90;;;4.73;100.00;102342.88;4152192;28;20084;-73
2023/01/27 00:15:28;;;;;;;11.75;3.20;;;5.70;99.90;;;4.76;100.00;102346.16;4151149;28;20110;-73
2023/01/27 00:17:29;;;;;;;9.45;3.70;;;5.80;99.90;;;4.80;100.00;102339.00;4140089;28;20027;-73
2023/01/27 00:19:30;;;;;;;8.05;3.08;;;5.80;99.90;;;4.88;100.00;102345.53;4152333;28;20389;-74
2023/01/27 00:26:16;;;;;;;13.77;2.80;;;5.90;99.90;;;4.99;100.00;102345.81;4145774;28;20029;-73
2023/01/27 00:28:22;;;;;;;11.05;2.75;;;6.00;99.90;;;5.04;100.00;102345.56;4153758;28;20080;-73
2023/01/27 00:30:22;;;;;;;10.32;3.40;;;6.00;99.90;;;5.07;100.00;102345.41;4153246;28;20026;-73
2023/01/27 00:34:43;;;;;;;7.10;2.50;;;6.10;99.90;;;5.06;100.00;102338.47;4152125;28;20033;-73
2023/01/27 00:36:44;;;;;;;11.60;2.88;;;6.10;99.90;;;5.10;100.00;102336.56;4155013;28;20034;-73
2023/01/27 00:38:45;;;;;;;8.88;3.30;;;6.10;99.90;;;5.10;100.00;102331.31;4163592;28;20367;-73
2023/01/27 00:41:14;;;;;;;11.75;3.10;;;6.10;99.90;;;5.07;100.00;102340.19;4153065;28;20061;-73
2023/01/27 00:43:06;;;;;;;15.32;3.50;;;6.10;99.90;;;5.02;100.00;102332.56;4152587;28;20044;-73
2023/01/27 00:47:28;;;;;;;12.23;3.63;;;6.10;99.90;;;5.02;100.00;102342.16;4159827;28;20072;-73
2023/01/27 00:49:28;;;;;;;12.23;3.13;;;6.00;99.90;;;5.04;100.00;102337.72;4154820;28;20022;-73
2023/01/27 00:51:30;;;;;;;11.15;3.00;;;6.10;99.90;;;5.01;100.00;102341.34;4152870;28;20037;-74
2023/01/27 00:53:31;;;;;;;9.70;2.97;;;6.10;99.90;;;5.02;100.00;102337.78;4151993;28;20029;-73
2023/01/27 00:55:32;;;;;;;10.35;3.55;;;6.10;99.90;;;5.01;100.00;102345.75;4151250;28;20033;-73
2023/01/27 00:57:33;;;;;;;13.50;3.53;;;6.10;99.90;;;4.99;100.00;102347.56;4151233;28;20426;-73
2023/01/27 00:59:34;;;;;;;11.15;2.70;;;6.10;99.90;;;5.01;100.00;102349.19;4151732;28;20029;-73
2023/01/27 01:01:35;;;;;;;12.63;2.72;;;6.00;99.90;;;5.01;100.00;102345.75;4152906;28;20022;-73
2023/01/27 01:03:36;;;;;;;13.65;3.20;;;6.10;99.90;;;4.98;100.00;102341.53;4152722;28;20038;-73
2023/01/27 01:05:37;;;;;;;11.90;2.67;;;6.00;99.90;;;4.98;100.00;102338.06;4152535;28;20049;-73
2023/01/27 01:07:38;;;;;;;12.05;3.67;;;6.10;99.90;;;5.01;100.00;102340.50;4160535;28;20094;-73
2023/01/27 01:09:39;;;;;;;12.27;2.50;;;6.00;99.90;;;4.98;100.00;102333.69;4152716;28;20551;-73
2023/01/27 01:11:40;;;;;;;6.63;1.95;;;6.00;99.90;;;4.97;100.00;102331.97;4152746;28;20057;-73
2023/01/27 01:13:42;;;;;;;12.27;2.40;;;6.00;99.90;;;5.01;100.00;102330.91;4151136;28;20092;-73
2023/01/27 01:15:43;;;;;;;11.70;2.45;;;6.00;99.90;;;5.00;100.00;102336.19;4135040;28;20478;-73
2023/01/27 01:17:44;;;;;;;9.48;2.60;;;6.10;99.90;;;4.98;100.00;102336.28;4157870;28;20037;-73
2023/01/27 01:19:45;;;;;;;19.02;3.00;;;6.00;99.90;;;4.96;100.00;102345.13;4151291;28;20030;-73
2023/01/27 01:21:46;;;;;;;11.07;2.45;;;6.00;99.90;;;4.93;100.00;102337.44;4152348;28;20053;-73
2023/01/27 01:23:47;;;;;;;10.30;2.17;;;6.00;99.90;;;4.89;100.00;102338.53;4152465;28;20033;-73
2023/01/27 01:25:56;;;;;;;14.13;2.75;;;5.90;99.90;;;4.86;100.00;102336.09;4152029;28;20030;-73
2023/01/27 01:27:57;;;;;;;11.65;2.80;;;5.90;99.90;;;4.87;100.00;102322.91;4151035;28;20046;-73
2023/01/27 01:29:59;;;;;;;5.60;1.88;;;5.90;99.90;;;4.86;100.00;102326.47;4152297;28;20609;-73
2023/01/27 01:32:00;;;;;;;9.65;3.40;;;5.90;99.90;;;4.86;100.00;102330.84;4151292;28;20029;-73
2023/01/27 01:34:01;;;;;;;6.88;2.58;;;5.90;99.90;;;4.86;100.00;102339.53;4152557;28;20057;-73
2023/01/27 01:36:11;;;;;;;7.95;2.05;;;5.90;99.90;;;4.89;100.00;102336.78;4153218;28;20087;-73
2023/01/27 01:38:13;;;;;;;13.40;2.20;;;5.90;99.90;;;4.95;100.00;102331.22;4153312;28;20040;-73
2023/01/27 01:40:14;;;;;;;11.73;2.70;;;6.00;99.90;;;4.93;100.00;102327.81;4152368;28;20032;-73
2023/01/27 01:42:15;;;;;;;14.57;3.03;;;6.00;99.90;;;4.94;100.00;102323.44;4151133;28;20022;-73
2023/01/27 01:44:23;;;;;;;11.23;2.22;;;6.00;99.90;;;4.97;100.00;102323.28;4150991;28;20030;-73
2023/01/27 01:46:24;;;;;;;11.00;3.05;;;6.00;99.90;;;4.96;100.00;102324.19;4151774;28;20034;-73
2023/01/27 01:49:00;;;;;;;6.88;1.67;;;6.00;99.90;;;4.93;100.00;102327.81;4150951;28;20084;-73
2023/01/27 01:51:09;;;;;;;;;;;6.00;99.90;;;4.89;100.00;102326.31;4152551;28;20026;-73
2023/01/27 01:53:11;;;;;;;8.13;1.33;;;6.00;99.90;;;4.88;100.00;102319.38;4135434;28;19909;-73
2023/01/27 01:55:12;;;;;;;7.50;2.10;;;6.00;99.90;;;4.89;100.00;102330.69;4151076;28;20032;-73
2023/01/27 01:57:28;;;;;;;9.23;1.30;;;6.00;99.90;;;4.84;100.00;102325.69;4162260;28;20026;-74
2023/01/27 01:59:40;;;;;;;9.63;1.75;;;5.90;99.90;;;4.89;100.00;102333.31;4140057;28;20072;-73
2023/01/27 02:01:41;;;;;;;10.10;2.45;;;5.90;99.90;;;4.83;100.00;102331.00;4151197;28;20026;-73
2023/01/27 02:03:48;;;;;;;11.13;1.90;;;5.90;99.90;;;4.87;100.00;102338.59;4152101;28;20102;-73
2023/01/27 02:05:50;;;;;;;8.63;2.17;;;5.90;99.90;;;4.87;100.00;102338.59;4150687;28;20042;-73
2023/01/27 02:08:33;;;;;;;9.95;1.92;;;5.90;99.90;;;4.91;100.00;102339.28;4161051;28;20026;-73
2023/01/27 02:10:35;;;;;;;6.13;1.58;;;5.90;99.90;;;4.94;100.00;102339.97;4150274;28;20121;-73
2023/01/27 02:12:36;;;;;;;9.52;2.30;;;5.90;99.90;;;4.85;100.00;102332.63;4150980;28;20473;-73
2023/01/27 02:14:38;;;;;;;10.02;2.72;;;5.90;99.90;;;4.86;100.00;102336.94;4150926;28;20405;-73
2023/01/27 02:16:40;;;;;;;8.63;1.75;;;5.90;99.90;;;4.85;100.00;102330.00;4139892;28;20029;-73
2023/01/27 02:18:42;;;;;;;8.80;1.63;;;5.90;99.90;;;4.84;100.00;102327.44;4152710;28;20030;-73
2023/01/27 02:20:53;;;;;;;9.23;1.85;;;5.90;99.90;;;4.80;100.00;102320.72;4152067;28;20026;-73
2023/01/27 02:23:49;;;;;;;9.82;2.03;;;5.80;99.90;;;4.78;100.00;102327.81;4134461;28;20034;-73
2023/01/27 02:26:12;;;;;;;10.15;2.40;;;5.80;99.90;;;4.81;100.00;102322.38;4135696;28;20112;-73
2023/01/27 02:28:13;;;;;;;10.48;2.22;;;5.90;99.90;;;4.80;100.00;102320.72;4148260;28;20029;-73
2023/01/27 02:30:14;;;;;;;6.00;2.33;;;5.80;99.90;;;4.81;100.00;102317.16;4151820;28;20026;-73
2023/01/27 02:32:25;;;;;;;8.27;2.42;;;5.90;99.90;;;4.75;100.00;102312.28;4151992;28;20076;-73
2023/01/27 02:34:31;;;;;;;7.80;2.00;;;5.80;99.90;;;4.69;100.00;102312.59;4150872;28;20429;-73
2023/01/27 02:36:39;;;;;;;9.43;2.50;;;5.80;99.90;;;4.72;100.00;102313.25;4153826;28;20443;-73
2023/01/27 02:38:52;;;;;;;6.55;1.90;;;5.70;99.90;;;4.69;100.00;102304.75;4151621;28;20033;-74
2023/01/27 02:40:56;;;;;;;7.82;1.67;;;5.70;99.90;;;4.70;100.00;102306.44;4153920;28;20082;-73
2023/01/27 02:42:58;;;;;;;10.93;2.00;;;5.70;99.90;;;4.71;100.00;102310.75;4137181;28;20121;-73
2023/01/27 02:44:59;;;;;;;10.55;2.50;;;5.70;99.90;;;4.71;100.00;102315.97;4153700;28;20030;-73
2023/01/27 02:47:00;;;;;;;10.05;1.90;;;5.70;99.90;;;4.69;100.00;102323.88;4155675;28;20034;-73
2023/01/27 02:49:01;;;;;;;12.60;2.58;;;5.70;99.90;;;4.77;100.00;102320.88;4154845;28;20025;-73
2023/01/27 02:51:02;;;;;;;7.30;1.55;;;5.80;99.90;;;4.74;100.00;102316.66;4152913;28;20033;-73
2023/01/27 02:53:04;;;;;;;12.70;1.60;;;5.80;99.90;;;4.79;100.00;102319.88;4153608;28;20022;-73
2023/01/27 02:55:06;;;;;;;10.25;1.83;;;5.80;99.90;;;4.80;100.00;102320.72;4137367;28;20050;-73
2023/01/27 02:57:07;;;;;;;6.75;1.65;;;5.80;99.90;;;4.86;100.00;102333.47;4153121;28;20026;-73
2023/01/27 02:59:08;;;;;;;7.15;1.55;;;5.80;99.90;;;4.77;100.00;102316.50;4154559;28;20453;-73
2023/01/27 03:01:09;;;;;;;8.18;2.53;;;5.80;99.90;;;4.83;100.00;102320.56;4154631;28;20049;-73
2023/01/27 03:03:10;;;;;;;6.32;1.65;;;5.80;99.90;;;4.85;100.00;102318.69;4153130;28;20401;-73
2023/01/27 03:05:11;;;;;;;10.60;1.83;;;5.80;99.90;;;4.83;100.00;102317.94;4154525;28;20068;-73
2023/01/27 03:07:12;;;;;;;9.70;1.55;;;5.80;99.90;;;4.81;100.00;102318.00;4163355;28;20481;-73
2023/01/27 03:09:13;;;;;;;6.07;2.35;;;5.80;99.90;;;4.76;100.00;102319.19;4153340;28;20069;-73
2023/01/27 03:12:18;;;;;;;5.03;1.15;;;5.80;99.90;;;4.81;100.00;102311.94;4153160;28;20117;-73
2023/01/27 03:13:36;;;;;;;4.85;1.70;;;5.80;99.90;;;4.74;100.00;102307.97;4153007;28;20103;-73
2023/01/27 03:18:14;;;;;;;7.18;2.78;;;5.80;99.90;;;4.73;100.00;102298.44;4160408;28;20040;-73
2023/01/27 03:20:16;;;;;;;3.40;0.70;;;5.80;99.90;;;4.71;100.00;102295.06;4154347;28;20090;-73
2023/01/27 03:22:17;;;;;;;6.25;1.48;;;5.80;99.90;;;4.70;100.00;102303.81;4154143;28;20050;-73
2023/01/27 03:24:19;;;;;;;4.68;1.20;;;5.80;99.90;;;4.68;100.00;102295.22;4153817;28;20030;-73
2023/01/27 03:26:20;;;;;;;5.22;1.05;;;5.70;99.90;;;4.62;100.00;102295.53;4154920;28;20034;-73
2023/01/27 03:28:20;;;;;;;7.72;1.20;;;5.70;99.90;;;4.53;100.00;102285.56;4154660;28;20022;-73
2023/01/27 03:30:21;;;;;;;5.30;1.27;;;5.60;99.90;;;4.55;100.00;102295.00;4154192;28;20061;-73
2023/01/27 03:32:31;;;;;;;11.82;1.45;;;5.60;99.90;;;4.51;100.00;102295.25;4152849;28;20038;-73
2023/01/27 03:34:32;;;;;;;10.02;1.20;;;5.60;99.90;;;4.51;100.00;102290.84;4154216;28;20052;-73
2023/01/27 03:48:12;;;;;;;7.20;2.45;;;5.60;99.90;;;4.62;100.00;102298.16;4152827;28;20551;-73
2023/01/27 03:50:18;;;;;;;11.43;2.30;;;5.60;99.90;;;4.58;100.00;102294.00;4152781;28;20156;-73
2023/01/27 03:52:18;;;;;;;7.82;1.50;;;5.70;99.90;;;4.62;100.00;102298.16;4152681;28;20081;-73
2023/01/27 03:54:19;;;;;;;5.70;1.40;;;5.60;99.90;;;4.63;100.00;102298.06;4136050;28;20037;-73
2023/01/27 03:56:21;;;;;;;5.78;1.50;;;5.70;99.90;;;4.65;100.00;102291.00;4154986;28;20484;-73
2023/01/27 03:58:28;;;;;;;9.13;1.48;;;5.70;99.90;;;4.67;100.00;102289.16;4162825;28;20045;-73
2023/01/27 04:00:31;;;;;;;5.13;1.85;;;5.70;99.90;;;4.70;100.00;102298.59;4136178;28;20030;-73
2023/01/27 04:07:12;;;;;;;8.25;1.77;;;5.80;99.90;;;4.68;100.00;102292.59;4161542;28;20117;-73
2023/01/27 04:09:27;;;;;;;9.25;1.48;;;5.70;99.90;;;4.76;100.00;102298.25;4136064;28;20033;-73
2023/01/27 04:13:48;;;;;;;8.68;1.60;;;5.70;99.90;;;4.70;100.00;102295.97;4153512;28;20427;-73
2023/01/27 04:15:53;;;;;;;5.30;1.58;;;5.70;99.90;;;4.69;100.00;102295.13;4153447;28;20032;-73
2023/01/27 04:17:55;;;;;;;7.40;1.77;;;5.70;99.90;;;4.70;100.00;102298.59;4157730;28;20105;-73
2023/01/27 04:19:56;;;;;;;6.53;1.60;;;5.70;99.90;;;4.69;100.00;102295.13;4153293;28;20022;-73
2023/01/27 04:21:58;;;;;;;5.80;1.70;;;5.70;99.90;;;4.68;100.00;102290.00;4153052;28;20049;-73
2023/01/27 04:24:00;;;;;;;8.85;2.20;;;5.70;99.90;;;4.68;100.00;102290.84;4136648;28;20023;-73
2023/01/27 04:26:00;;;;;;;12.35;2.13;;;5.70;99.90;;;4.65;100.00;102291.00;4151967;28;20034;-73
2023/01/27 04:28:02;;;;;;;14.10;2.90;;;5.70;99.90;;;4.66;100.00;102295.28;4155993;28;20025;-73
2023/01/27 04:30:04;;;;;;;9.35;1.92;;;5.70;99.90;;;4.63;100.00;102289.41;4153069;28;20532;-73
2023/01/27 04:32:06;;;;;;;12.63;2.20;;;5.70;99.90;;;4.66;100.00;102281.41;4153199;28;20022;-73
2023/01/27 04:34:09;;;;;;;11.93;2.10;;;5.70;99.90;;;4.65;100.00;102277.09;4135823;28;20038;-73
2023/01/27 04:36:14;;;;;;;7.40;1.90;;;5.70;99.90;;;4.62;100.00;102279.84;4151904;28;20033;-73
2023/01/27 04:38:15;;;;;;;12.15;2.25;;;5.70;99.90;;;4.64;100.00;102278.00;4152415;28;20063;-74
2023/01/27 04:40:16;;;;;;;7.70;2.20;;;5.70;99.90;;;4.66;100.00;102270.94;4153028;28;20441;-73
2023/01/27 04:42:17;;;;;;;7.07;1.75;;;5.70;99.90;;;4.63;100.00;102269.31;4152778;28;20045;-73
2023/01/27 04:44:20;;;;;;;16.90;3.03;;;5.70;99.90;;;4.61;100.00;102270.31;4151608;28;20033;-73
2023/01/27 04:46:21;;;;;;;16.45;2.60;;;5.70;99.90;;;4.59;100.00;102273.03;4152226;28;20034;-73
2023/01/27 04:48:22;;;;;;;9.65;2.30;;;5.70;99.90;;;4.64;100.00;102283.22;4163456;28;20076;-73
2023/01/27 04:50:23;;;;;;;9.55;2.38;;;5.70;99.90;;;4.67;100.00;102273.47;4152476;28;20563;-73
2023/01/27 04:52:24;;;;;;;11.15;2.35;;;5.70;99.90;;;4.70;100.00;102264.59;4151523;28;20030;-73
2023/01/27 04:54:25;;;;;;;16.73;2.05;;;5.70;99.90;;;4.71;100.00;102271.53;4152865;28;20384;-73
2023/01/27 04:56:30;;;;;;;10.98;2.90;;;5.70;99.90;;;4.70;100.00;102268.06;4152578;28;20428;-73
2023/01/27 04:58:32;;;;;;;8.75;2.75;;;5.70;99.90;;;4.72;100.00;102260.16;4159444;28;20064;-73
2023/01/27 05:00:33;;;;;;;6.90;1.92;;;5.80;99.90;;;4.77;100.00;102255.53;4151257;28;20026;-73
2023/01/27 05:02:34;;;;;;;9.27;2.30;;;5.80;99.90;;;4.76;100.00;102257.28;4150926;28;20029;-73
2023/01/27 05:04:35;;;;;;;9.90;2.00;;;5.80;99.90;;;4.77;100.00;102252.91;4151399;28;20088;-73
2023/01/27 05:06:35;;;;;;;9.88;2.10;;;5.80;99.90;;;4.73;100.00;102254.84;4154450;28;20037;-73
2023/01/27 05:08:37;;;;;;;9.82;2.33;;;5.80;99.90;;;4.81;100.00;102255.25;4157651;28;20029;-73
2023/01/27 05:10:38;;;;;;;7.63;2.35;;;5.80;99.90;;;4.83;100.00;102263.03;4151280;28;20029;-73
2023/01/27 05:12:39;;;;;;;7.13;1.75;;;5.80;99.90;;;4.78;100.00;102255.44;4151217;28;20080;-73
2023/01/27 05:14:40;;;;;;;6.80;2.08;;;5.80;99.90;;;4.80;100.00;102258.81;4151421;28;20065;-73
2023/01/27 05:16:41;;;;;;;8.55;2.65;;;5.80;99.90;;;4.82;100.00;102269.19;4155346;28;20052;-73
2023/01/27 05:18:44;;;;;;;10.98;2.17;;;5.80;99.90;;;4.79;100.00;102244.06;4136910;28;20041;-73
2023/01/27 05:20:44;;;;;;;15.68;2.78;;;5.80;99.90;;;4.78;100.00;102259.84;4152534;28;20030;-73
2023/01/27 05:22:45;;;;;;;12.10;2.08;;;5.80;99.90;;;4.82;100.00;102256.13;4150995;28;20046;-73
2023/01/27 05:24:46;;;;;;;11.55;2.53;;;5.80;99.90;;;4.79;100.00;102259.75;4157733;28;20033;-73
2023/01/27 05:26:47;;;;;;;10.38;2.53;;;5.90;99.90;;;4.86;100.00;102262.88;4155624;28;20040;-73
2023/01/27 05:28:50;;;;;;;15.32;2.00;;;5.90;99.90;;;4.82;100.00;102263.97;4152397;28;20026;-73
2023/01/27 05:30:51;;;;;;;11.05;2.47;;;5.80;99.90;;;4.80;100.00;102263.19;4146306;28;20023;-73
2023/01/27 05:32:52;;;;;;;8.93;1.70;;;5.80;99.90;;;4.80;100.00;102263.19;4154759;28;20374;-73
2023/01/27 05:34:53;;;;;;;7.30;1.85;;;5.80;99.90;;;4.77;100.00;102258.13;4152190;28;20026;-73
2023/01/27 05:36:54;;;;;;;9.32;1.75;;;5.80;99.90;;;4.79;100.00;102258.88;4152510;28;20022;-73
2023/01/27 05:38:55;;;;;;;7.47;2.53;;;5.80;99.90;;;4.76;100.00;102266.91;4152402;28;20030;-73
2023/01/27 05:41:03;;;;;;;6.90;2.03;;;5.80;99.90;;;4.76;100.00;102256.44;4151174;28;20552;-73
2023/01/27 05:43:04;;;;;;;10.32;1.60;;;5.80;99.90;;;4.71;100.00;102261.94;4144779;28;20063;-73
2023/01/27 05:45:06;;;;;;;7.22;1.77;;;5.70;99.90;;;4.61;100.00;102252.88;4142915;28;20031;-73
2023/01/27 05:47:06;;;;;;;7.93;1.65;;;5.70;99.90;;;4.60;100.00;102266.03;4144463;28;20108;-73
2023/01/27 05:49:08;;;;;;;12.32;1.88;;;5.70;99.90;;;4.62;100.00;102269.41;4143644;28;20018;-73
2023/01/27 05:51:10;;;;;;;11.52;1.77;;;5.70;99.90;;;4.71;100.00;102264.53;4144441;28;20026;-73
2023/01/27 05:53:11;;;;;;;11.32;1.60;;;5.70;99.90;;;4.63;100.00;102256.25;4145208;28;20486;-73
2023/01/27 05:55:12;;;;;;;7.20;1.40;;;5.70;99.90;;;4.59;100.00;102259.97;4140114;28;20055;-73
2023/01/27 05:57:12;;;;;;;7.90;1.42;;;5.70;99.90;;;4.57;100.00;102260.97;4145085;28;20022;-73
2023/01/27 05:59:13;;;;;;;8.05;1.52;;;5.60;99.90;;;4.50;100.00;102254.38;4144312;28;20028;-73
2023/01/27 06:01:21;;;;;;;10.25;1.63;;;5.60;99.90;;;4.51;100.00;102249.03;4127384;28;20031;-73
2023/01/27 06:03:22;;;;;;;5.43;1.23;;;5.60;99.90;;;4.41;100.00;102246.09;4143768;28;20441;-73
2023/01/27 06:05:23;;;;;;;11.70;2.15;;;5.50;99.90;;;4.42;100.00;102252.97;4143886;28;20028;-73
2023/01/27 06:07:24;;;;;;;5.57;1.33;;;5.50;99.90;;;4.33;100.00;102253.47;4147124;28;20109;-73
2023/01/27 06:09:25;;;;;;;4.88;1.30;;;5.40;99.90;;;4.23;100.00;102252.25;4140368;28;20089;-73
2023/01/27 06:11:26;;;;;;;10.18;1.40;;;5.30;99.90;;;4.11;100.00;102252.88;4148016;28;20030;-73
2023/01/27 06:13:27;;;;;;;3.70;1.40;;;5.30;99.90;;;4.08;100.00;102247.81;4151202;28;20608;-73
2023/01/27 06:15:28;;;;;;;6.88;1.23;;;5.20;99.90;;;4.11;100.00;102252.03;4153981;28;20022;-73
2023/01/27 06:17:29;;;;;;;5.15;1.67;;;5.10;99.90;;;3.95;100.00;102249.34;4154119;28;20025;-73
2023/01/27 06:19:30;;;;;;;6.50;2.17;;;5.00;99.90;;;3.81;100.00;102249.19;4155217;28;20508;-73
2023/01/27 06:21:31;;;;;;;4.15;1.05;;;4.90;99.90;;;3.71;100.00;102255.78;4155004;28;20033;-73
2023/01/27 06:23:32;;;;;;;5.50;1.98;;;4.80;99.90;;;3.65;100.00;102256.94;4154973;28;20030;-73
2023/01/27 06:25:42;;;;;;;4.93;1.40;;;4.70;99.90;;;3.60;100.00;102248.50;4155903;28;20030;-73
2023/01/27 06:27:43;;;;;;;2.25;1.00;;;4.70;99.90;;;3.57;100.00;102255.63;4155982;28;20041;-73
2023/01/27 06:29:44;;;;;;;9.00;1.30;;;4.60;99.90;;;3.58;100.00;102257.31;4155032;28;20026;-73
2023/01/27 06:31:45;;;;;;;7.40;1.30;;;4.60;99.90;;;3.59;100.00;102262.44;4154835;28;20022;-73
2023/01/27 06:33:46;;;;;;;9.73;1.40;;;4.60;99.90;;;3.52;100.00;102247.19;4154714;28;20037;-74
2023/01/27 06:35:47;;;;;;;7.20;1.52;;;4.60;99.90;;;3.49;100.00;102249.94;4153787;28;20023;-74
2023/01/27 06:37:50;;;;;;;6.28;1.60;;;4.50;99.90;;;3.46;100.00;102247.47;4164639;28;20025;-73
2023/01/27 06:39:51;;;;;;;7.03;1.45;;;4.50;99.90;;;3.37;100.00;102246.16;4155354;28;20026;-73
2023/01/27 06:41:52;;;;;;;8.80;1.27;;;4.40;99.90;;;3.39;100.00;102249.50;4153515;28;20029;-73
2023/01/27 06:43:53;;;;;;;10.02;1.98;;;4.40;99.90;;;3.29;100.00;102253.47;4154828;28;20029;-73
2023/01/27 06:45:56;;;;;;;6.70;1.33;;;4.40;99.90;;;3.24;100.00;102243.28;4158815;28;20401;-73
2023/01/27 06:47:59;;;;;;;4.22;1.15;;;4.30;99.90;;;3.23;100.00;102256.38;4163802;28;20029;-73
2023/01/27 06:50:00;;;;;;;6.35;1.63;;;4.30;99.90;;;3.19;100.00;102250.47;4154807;28;20113;-73
2023/01/27 06:52:01;;;;;;;11.98;1.90;;;4.20;99.90;;;3.18;100.00;102254.00;4154297;28;20520;-73
2023/01/27 06:54:02;;;;;;;11.85;2.00;;;4.20;99.90;;;3.12;100.00;102243.84;4153216;28;20022;-73
2023/01/27 06:56:04;;;;;;;6.18;1.83;;;4.10;99.90;;;3.12;100.00;102251.66;4153287;28;20421;-73
2023/01/27 06:58:05;;;;;;;9.55;1.67;;;4.10;99.90;;;3.13;100.00;102245.53;4154462;28;20029;-73
2023/01/27 07:00:07;;;;;;;10.20;1.52;;;4.10;99.90;;;3.11;100.00;102251.72;4154593;28;20033;-73
2023/01/27 07:02:13;;;;;;;4.90;1.60;;;4.10;99.90;;;3.11;100.00;102243.91;4153287;28;20519;-73
2023/01/27 07:04:14;;;;;;;2.47;1.30;;;4.10;99.90;;;3.06;100.00;102246.75;4153209;28;20029;-73
2023/01/27 07:06:17;;;;;;;12.98;1.67;;;4.10;99.90;;;3.02;100.00;102249.53;4157414;28;20033;-73
2023/01/27 07:08:18;;;;;;;6.88;1.45;;;4.10;99.90;;;2.99;100.00;102258.34;4160794;28;20021;-73
2023/01/27 07:10:19;;;;;;;8.88;1.35;;;4.00;99.90;;;3.01;100.00;102259.16;4153187;28;20536;-73
2023/01/27 07:12:20;;;;;;;4.25;1.27;;;4.00;99.90;;;3.02;100.00;102263.44;4153129;28;20025;-74
2023/01/27 07:14:21;;;;;;;6.75;1.48;;;4.00;99.90;;;3.00;100.00;102257.44;4154564;28;20033;-74
2023/01/27 07:16:22;;;;;;;4.93;1.50;;;4.00;99.90;;;3.07;100.00;102258.88;4157152;28;20397;-73
2023/01/27 07:18:23;;;;;;;10.50;2.08;;;4.00;99.90;;;2.99;100.00;102257.50;4157583;28;20021;-73
2023/01/27 07:20:27;;;;;;;4.68;1.92;;;4.00;99.90;;;3.02;100.00;102262.56;4154138;28;20108;-73
2023/01/27 07:22:28;;;;;;;4.30;1.10;;;4.00;99.90;;;2.97;100.00;102254.97;4152995;28;20484;-73
2023/01/27 07:24:29;;;;;;;5.97;1.60;;;4.00;99.90;;;2.87;100.00;102253.69;4154948;28;20093;-73
2023/01/27 07:26:30;;;;;;;10.05;1.30;;;4.00;99.90;;;2.89;100.00;102257.09;4160366;28;20038;-73
2023/01/27 07:28:30;;;;;;;4.53;1.20;;;3.90;99.90;;;2.81;100.00;102251.38;4153239;28;20505;-73
2023/01/27 07:30:36;;;;;;;4.88;1.52;;;3.90;99.90;;;2.85;100.00;102255.53;4159740;28;20018;-73
2023/01/27 07:32:37;;;;;;;3.92;1.73;;;3.90;99.90;;;2.89;100.00;102257.09;4153450;28;20034;-73
2023/01/27 07:34:37;;;;;;;5.22;1.63;;;3.90;99.90;;;2.87;100.00;102261.53;4151740;28;20053;-74
2023/01/27 07:36:38;;;;;;;4.68;1.77;;;3.90;99.90;;;2.92;100.00;102264.78;4157991;28;20029;-74
2023/01/27 07:38:39;;;;;;;15.15;2.38;;;3.90;99.90;;;2.80;100.00;102257.53;4153451;28;20489;-74
2023/01/27 07:40:40;;;;;;;8.57;1.60;;;3.90;99.90;;;2.90;100.00;102263.97;4135767;28;20038;-73
2023/01/27 07:42:41;;;;;;;7.10;1.35;;;3.90;99.90;;;2.89;100.00;102262.31;4153354;28;20517;-73
2023/01/27 07:44:42;;;;;;;6.80;1.70;;;3.90;99.90;;;2.82;100.00;102258.28;4151956;28;20065;-73
2023/01/27 07:46:43;;;;;;;8.45;1.77;;;3.90;99.90;;;2.73;100.00;102256.09;4153478;28;20097;-73
2023/01/27 07:48:44;;;;;;;6.20;2.72;;;3.80;99.90;;;2.68;100.00;102264.13;4152346;28;20037;-73
2023/01/27 07:50:45;;;;;;;6.72;1.55;;;3.70;99.90;;;2.68;100.00;102258.06;4152864;28;20025;-74
2023/01/27 07:52:46;;;;;;;6.63;2.10;;;3.70;99.90;;;2.74;100.00;102257.78;4153262;28;20029;-73
2023/01/27 07:54:47;;;;;;;3.70;1.60;;;3.70;99.90;;;2.77;100.00;102260.25;4152955;28;20382;-73
2023/01/27 07:56:47;;;;;;;7.97;2.08;;;3.70;99.90;;;2.77;100.00;102257.66;4153345;28;20064;-74
2023/01/27 07:58:48;;;;;;;6.30;1.92;;;3.80;99.90;;;2.69;100.00;102264.94;4153268;28;20060;-73
2023/01/27 08:00:49;;;;;;;6.57;1.70;;;3.70;99.90;;;2.78;100.00;102269.75;4152183;28;20029;-73
2023/01/27 08:02:52;;;;;;;4.13;1.48;;;3.80;99.90;;;2.82;100.00;102260.88;4153687;28;20026;-73
2023/01/27 08:04:53;;;;;;;6.13;1.65;;;3.80;99.90;;;2.84;100.00;102259.06;4152519;28;20037;-73
2023/01/27 08:06:54;;;;;;;6.40;1.85;;;3.80;99.90;;;2.79;100.00;102255.81;4159831;28;20037;-73
2023/01/27 08:08:55;;;;;;;7.40;1.40;;;3.80;99.90;;;2.96;100.00;102278.50;4156177;28;20048;-73
2023/01/27 08:11:06;;;;;;;5.65;1.33;;;3.90;99.90;;;2.85;100.00;102271.19;4152412;28;20026;-73
2023/01/27 08:13:07;;;;;;;9.48;1.50;;;3.90;99.90;;;2.96;100.00;102274.13;4152200;28;20030;-73
2023/01/27 08:15:08;;;;;;;6.05;2.15;;;3.90;99.90;;;2.95;100.00;102271.59;4153498;28;20033;-74
2023/01/27 08:17:09;;;;;;;5.63;1.20;;;4.00;99.90;;;3.00;100.00;102270.47;4159664;28;20025;-73
2023/01/27 08:19:10;;;;;;;6.55;1.23;;;4.00;99.90;;;2.97;100.00;102268.00;4152183;28;20057;-73
2023/01/27 08:21:12;;;;;;;4.85;1.73;;;4.00;99.90;;;2.94;100.00;102270.75;4153220;28;20100;-73
2023/01/27 08:23:13;;;;;;;6.50;1.60;;;4.00;99.90;;;2.96;100.00;102270.69;4152149;28;20026;-73
2023/01/27 08:25:14;;;;;;;6.93;1.23;;;4.00;99.90;;;2.99;100.00;102279.22;4152839;28;20030;-73
2023/01/27 08:27:16;;;;;;;4.82;1.52;;;4.00;99.90;;;2.95;100.00;102272.47;4158016;28;20026;-73
2023/01/27 08:29:17;;;;;;;6.70;1.80;;;4.00;99.90;;;3.07;100.00;102265.84;4152186;28;20488;-73
2023/01/27 08:31:18;;;;;;;4.20;1.88;;;4.00;99.90;;;3.01;100.00;102256.53;4151731;28;20030;-73
2023/01/27 08:33:22;;;;;;;5.63;1.23;;;4.00;99.90;;;2.99;100.00;102260.97;4134664;28;20073;-72
2023/01/27 08:35:22;;;;;;;9.02;1.60;;;4.00;99.90;;;2.94;100.00;102255.13;4140662;28;20510;-74
2023/01/27 08:37:23;;;;;;;8.27;1.63;;;4.00;99.90;;;3.05;100.00;102267.66;4153349;28;20049;-74
2023/01/27 08:39:24;;;;;;;6.97;2.00;;;4.00;99.90;;;3.07;100.00;102268.44;4152709;28;20414;-73
2023/01/27 08:41:26;;;;;;;5.90;1.30;;;4.10;99.90;;;3.12;100.00;102262.09;4151283;28;20096;-73
2023/01/27 08:43:27;;;;;;;7.60;1.60;;;4.10;99.90;;;3.31;100.00;102262.94;4150810;28;20038;-73
2023/01/27 08:45:28;;;;;;;5.93;1.60;;;4.20;99.90;;;3.39;100.00;102257.34;4152249;28;20038;-73
2023/01/27 08:47:29;;;;;;;6.43;1.50;;;4.30;99.90;;;3.47;100.00;102262.19;4151677;28;20041;-73
2023/01/27 08:49:30;;;;;;;4.32;1.40;;;4.40;99.90;;;3.56;100.00;102253.91;4151124;28;20018;-73
2023/01/27 08:51:31;;;;;;;6.07;1.80;;;4.50;99.90;;;3.59;100.00;102259.84;4135125;28;20054;-73
2023/01/27 08:53:32;;;;;;;4.40;1.85;;;4.60;99.90;;;3.73;100.00;102275.66;4151341;28;20033;-73
2023/01/27 08:55:33;;;;;;;5.00;1.45;;;4.60;99.90;;;3.81;100.00;102270.94;4151596;28;20018;-73
2023/01/27 08:57:35;;;;;;;4.82;1.52;;;4.80;99.90;;;3.84;100.00;102269.94;4164456;28;20041;-73
2023/01/27 08:59:35;;;;;;;9.23;1.60;;;4.80;99.90;;;3.89;100.00;102267.94;4151557;28;20076;-73
2023/01/27 09:01:36;;;;;;;12.50;2.08;;;4.80;99.90;;;3.87;100.00;102257.56;4152363;28;20101;-73
2023/01/27 09:03:37;;;;;;;6.68;1.88;;;4.90;99.90;;;3.87;100.00;102268.00;4151558;28;20030;-73
2023/01/27 09:05:39;;;;;;;4.97;1.30;;;4.90;99.90;;;3.89;100.00;102265.31;4152556;28;20038;-73
2023/01/27 09:07:40;;;;;;;3.75;1.30;;;4.90;99.90;;;4.05;100.00;102268.84;4160575;28;20033;-73